Messwerte Havre

Temperatur

Temperatur
°C
1574308800 21.00 21.00 -2
1574312400 22.00 22.00 -3
1574316000 23.00 23.00 -3
1574319600 0.00 0.00 -4
1574323200 1.00 1.00 -8
1574326800 2.00 2.00 -7
1574330400 3.00 3.00 -9
1574334000 4.00 4.00 -10
1574337600 5.00 5.00 -10
1574341200 6.00 6.00 -9
1574344800 7.00 7.00 -9
1574348400 8.00 8.00
1574352000 9.00 9.00 -8
1574355600 10.00 10.00 -8
1574359200 11.00 11.00 -8
1574362800 12.00 12.00 -7
1574366400 13.00 13.00
1574370000 14.00 14.00 -6
1574373600 15.00 15.00 -6
1574377200 16.00 16.00 -7
1574380800 17.00 17.00
1574384400 18.00 18.00 -8
1574388000 19.00 19.00 -9
1574391600 20.00 20.00 -9

Aktuellste Messwerte

Wettercharakter
Wetter: Nebel
Temperatur
-11 °C
Feuchtigkeit
92 %
Wind
0 km/h, -
Luftdruck
1015 hPa
Messzeit: 21. November 2019, 21.00Datenquelle: METAR

Weitere Messstationen in der Nähe

Messstation Temperatur Entfernung
Onefour -14 °C 81 km
Eastend -8 °C 113 km
Cypress Hills Park -5 °C 124 km
Maple Creek -2 °C 152 km
Foremost Agdm -4 °C 162 km
Great Falls -2 °C 168 km
Lewistown -7 °C 168 km

Wind

Windrichtung Böen Mittelwind
° km/h km/h
1574308800 21.00 20.00 - 21.00 240° 15
1574312400 22.00 21.00 - 22.00 230° 10
1574316000 23.00 22.00 - 23.00 260° 5
1574319600 0.00 23.00 - 0.00 250° 10
1574323200 1.00 0.00 - 1.00 230° 10
1574326800 2.00 1.00 - 2.00 250° 5
1574330400 3.00 2.00 - 3.00 210° 5
1574334000 4.00 3.00 - 4.00 0
1574337600 5.00 4.00 - 5.00 60° 5
1574341200 6.00 5.00 - 6.00 110° 10
1574344800 7.00 6.00 - 7.00 90° 10
1574348400 8.00 7.00 - 8.00
1574352000 9.00 8.00 - 9.00 70° 10
1574355600 10.00 9.00 - 10.00 60° 10
1574359200 11.00 10.00 - 11.00 80° 15
1574362800 12.00 11.00 - 12.00 60° 15
1574366400 13.00 12.00 - 13.00 50° 15
1574370000 14.00 13.00 - 14.00 0
1574373600 15.00 14.00 - 15.00 40° 10
1574377200 16.00 15.00 - 16.00 60° 10
1574380800 17.00 16.00 - 17.00
1574384400 18.00 17.00 - 18.00 50° 10
1574388000 19.00 18.00 - 19.00 0
1574391600 20.00 19.00 - 20.00 0

Ihre Wetterstation

Fehlt Ihre Wetterstation auf unserem Portal?

Schreiben Sie an network@meteonews.ch

Klima

Wann ist es am wärmsten? Wann regnet es am wenigsten? Unsere Klimadaten geben Auskunft.